createdAt,value
2017-11-21T00:00:21.718Z,100786.27
2017-11-21T00:02:49.287Z,100791.28
2017-11-21T00:05:16.864Z,100780.89
2017-11-21T00:07:44.466Z,100772.36
2017-11-21T00:10:12.039Z,100756.42
2017-11-21T00:12:39.604Z,100750.16
2017-11-21T00:15:07.179Z,100752.40
2017-11-21T00:17:34.743Z,100743.87
2017-11-21T00:20:02.317Z,100740.31
2017-11-21T00:22:32.870Z,100732.70
2017-11-21T00:25:00.443Z,100727.53
2017-11-21T00:27:28.016Z,100732.55
2017-11-21T00:29:55.590Z,100736.98
2017-11-21T00:32:23.162Z,100728.82
2017-11-21T00:34:50.762Z,100726.41
2017-11-21T00:37:18.321Z,100735.61
2017-11-21T00:39:45.918Z,100734.84
2017-11-21T00:42:13.482Z,100736.36
2017-11-21T00:44:41.047Z,100736.67
2017-11-21T00:47:08.609Z,100733.67
2017-11-21T00:49:36.177Z,100732.17
2017-11-21T00:52:03.746Z,100728.87
2017-11-21T00:54:31.309Z,100733.73
2017-11-21T00:56:58.870Z,100731.92
2017-11-21T00:59:26.478Z,100731.14
2017-11-21T01:01:54.045Z,100729.41
2017-11-21T01:04:21.654Z,100725.43
2017-11-21T01:06:49.233Z,100732.70
2017-11-21T01:09:16.799Z,100726.84
2017-11-21T01:11:44.364Z,100719.76
2017-11-21T01:14:11.930Z,100716.19
2017-11-21T01:16:39.497Z,100718.36
2017-11-21T01:19:07.062Z,100710.14
2017-11-21T01:21:34.627Z,100713.02
2017-11-21T01:24:02.262Z,100703.56
2017-11-21T01:26:29.831Z,100714.98
2017-11-21T01:28:57.397Z,100711.86
2017-11-21T01:31:24.957Z,100706.79
2017-11-21T01:33:52.521Z,100704.67
2017-11-21T01:36:20.126Z,100698.78
2017-11-21T01:38:47.694Z,100689.45
2017-11-21T01:41:15.264Z,100685.64
2017-11-21T01:43:42.829Z,100686.59
2017-11-21T01:46:10.392Z,100682.38
2017-11-21T01:48:37.994Z,100688.17
2017-11-21T01:51:05.566Z,100683.41
2017-11-21T01:53:33.130Z,100680.94
2017-11-21T01:56:00.702Z,100676.33
2017-11-21T01:58:28.269Z,100677.00
2017-11-21T02:00:55.834Z,100679.95
2017-11-21T02:03:23.413Z,100682.31
2017-11-21T02:05:51.011Z,100680.57
2017-11-21T02:08:18.583Z,100680.27
2017-11-21T02:10:46.182Z,100685.30
2017-11-21T02:13:13.749Z,100684.31
2017-11-21T02:15:41.313Z,100689.63
2017-11-21T02:18:08.897Z,100691.77
2017-11-21T02:20:36.466Z,100694.50
2017-11-21T02:23:04.038Z,100694.11
2017-11-21T02:25:31.599Z,100689.77
2017-11-21T02:27:59.167Z,100682.52
2017-11-21T02:30:26.726Z,100673.91
2017-11-21T02:32:54.327Z,100667.09
2017-11-21T02:35:21.894Z,100654.62
2017-11-21T02:37:49.459Z,100649.86
2017-11-21T02:40:17.025Z,100648.31
2017-11-21T02:42:44.629Z,100652.62
2017-11-21T02:45:12.195Z,100643.59
2017-11-21T02:47:39.787Z,100639.12
2017-11-21T02:50:07.896Z,100630.41
2017-11-21T02:52:35.515Z,100634.84
2017-11-21T02:55:03.085Z,100638.41
2017-11-21T02:57:30.658Z,100639.73
2017-11-21T02:59:58.221Z,100641.51
2017-11-21T03:02:25.797Z,100636.33
2017-11-21T03:04:53.398Z,100631.30
2017-11-21T03:07:20.993Z,100626.23
2017-11-21T03:09:48.565Z,100629.34
2017-11-21T03:12:16.139Z,100638.83
2017-11-21T03:14:43.745Z,100639.70
2017-11-21T03:17:11.333Z,100640.41
2017-11-21T03:19:38.908Z,100641.91
2017-11-21T03:22:18.246Z,100635.56
2017-11-21T03:28:01.589Z,100638.27
2017-11-21T03:30:29.188Z,100642.52
2017-11-21T03:32:56.807Z,100641.23
2017-11-21T03:35:24.378Z,100637.05
2017-11-21T03:37:52.025Z,100639.22
2017-11-21T03:40:19.637Z,100634.02
2017-11-21T03:42:47.206Z,100635.38
2017-11-21T03:45:14.809Z,100622.98
2017-11-21T03:47:42.373Z,100612.45
2017-11-21T03:50:09.971Z,100603.42
2017-11-21T03:52:37.587Z,100616.98
2017-11-21T03:55:05.182Z,100621.06
2017-11-21T03:57:32.777Z,100626.25
2017-11-21T04:00:00.342Z,100623.55
2017-11-21T04:02:27.945Z,100609.47
2017-11-21T04:04:55.515Z,100602.02
2017-11-21T04:07:23.133Z,100608.17
2017-11-21T04:09:50.693Z,100610.52
2017-11-21T04:12:18.258Z,100601.31
2017-11-21T04:14:45.825Z,100597.03
2017-11-21T04:17:13.416Z,100585.30
2017-11-21T04:19:41.052Z,100583.09
2017-11-21T04:22:08.623Z,100575.37
2017-11-21T04:24:36.233Z,100577.61
2017-11-21T04:27:03.811Z,100572.16
2017-11-21T04:29:31.413Z,100577.72
2017-11-21T04:31:58.979Z,100589.29
2017-11-21T04:34:26.547Z,100600.34
2017-11-21T04:36:54.122Z,100609.54
2017-11-21T04:39:21.696Z,100613.22
2017-11-21T04:41:49.294Z,100620.48
2017-11-21T04:44:17.648Z,100624.00
2017-11-21T04:46:45.217Z,100620.64
2017-11-21T04:49:12.792Z,100625.81
2017-11-21T04:51:40.379Z,100636.55
2017-11-21T04:54:07.952Z,100624.05
2017-11-21T04:56:35.519Z,100621.09
2017-11-21T04:59:03.103Z,100624.41
2017-11-21T05:01:30.670Z,100620.94
2017-11-21T05:03:58.248Z,100622.05
2017-11-21T05:06:25.820Z,100624.97
2017-11-21T05:08:53.412Z,100621.90
2017-11-21T05:11:21.232Z,100619.22
2017-11-21T05:13:48.820Z,100618.78
2017-11-21T05:16:16.394Z,100616.72
2017-11-21T05:18:43.988Z,100612.54
2017-11-21T05:21:11.588Z,100609.13
2017-11-21T05:23:39.167Z,100609.94
2017-11-21T05:26:06.741Z,100611.71
2017-11-21T05:28:34.310Z,100613.47
2017-11-21T05:31:01.884Z,100602.17
2017-11-21T05:33:40.685Z,100598.85
2017-11-21T05:36:08.264Z,100597.83
2017-11-21T05:38:35.835Z,100595.48
2017-11-21T05:41:03.407Z,100588.80
2017-11-21T05:43:31.019Z,100586.60
2017-11-21T05:45:58.600Z,100582.16
2017-11-21T05:48:26.206Z,100576.53
2017-11-21T05:50:53.778Z,100582.55
2017-11-21T05:53:21.355Z,100577.05
2017-11-21T05:55:48.927Z,100575.00
2017-11-21T05:58:16.543Z,100573.77
2017-11-21T06:00:44.124Z,100570.27
2017-11-21T06:03:11.727Z,100572.87
2017-11-21T06:05:39.304Z,100568.12
2017-11-21T06:08:06.899Z,100565.22
2017-11-21T06:10:34.490Z,100567.06
2017-11-21T06:13:02.067Z,100567.93
2017-11-21T06:15:29.683Z,100563.87
2017-11-21T06:17:57.963Z,100563.75
2017-11-21T06:20:25.538Z,100566.94
2017-11-21T06:22:54.050Z,100555.43
2017-11-21T06:25:21.866Z,100559.31
2017-11-21T06:27:49.729Z,100565.46
2017-11-21T06:30:18.909Z,100565.16
2017-11-21T06:32:46.481Z,100572.15
2017-11-21T06:35:14.090Z,100569.14
2017-11-21T06:37:41.750Z,100571.61
2017-11-21T06:40:09.324Z,100572.03
2017-11-21T06:42:36.897Z,100566.70
2017-11-21T06:45:04.467Z,100570.98
2017-11-21T06:47:32.034Z,100570.89
2017-11-21T06:49:59.661Z,100576.45
2017-11-21T06:52:27.278Z,100585.88
2017-11-21T06:54:54.843Z,100579.81
2017-11-21T06:57:22.415Z,100581.83
2017-11-21T06:59:49.978Z,100585.08
2017-11-21T07:02:17.549Z,100583.59
2017-11-21T07:04:45.129Z,100579.12
2017-11-21T07:07:12.696Z,100575.83
2017-11-21T07:09:40.261Z,100572.27
2017-11-21T07:12:07.826Z,100571.34
2017-11-21T07:14:35.386Z,100576.20
2017-11-21T07:17:02.991Z,100575.72
2017-11-21T07:19:30.586Z,100583.22
2017-11-21T07:21:58.196Z,100582.89
2017-11-21T07:24:25.811Z,100583.04
2017-11-21T07:26:53.390Z,100593.17
2017-11-21T07:29:20.961Z,100591.20
2017-11-21T07:31:48.531Z,100590.22
2017-11-21T07:34:16.102Z,100587.48
2017-11-21T07:36:43.675Z,100587.08
2017-11-21T07:39:11.239Z,100591.03
2017-11-21T07:41:38.835Z,100595.30
2017-11-21T07:44:06.435Z,100593.77
2017-11-21T07:46:34.054Z,100587.47
2017-11-21T07:49:01.630Z,100598.08
2017-11-21T07:51:29.205Z,100602.13
2017-11-21T07:53:56.840Z,100598.59
2017-11-21T07:56:24.463Z,100603.92
2017-11-21T07:58:52.023Z,100601.24
2017-11-21T08:01:19.626Z,100601.48
2017-11-21T08:03:47.229Z,100598.71
2017-11-21T08:06:14.793Z,100596.75
2017-11-21T08:08:42.363Z,100597.72
2017-11-21T08:11:10.072Z,100599.08
2017-11-21T08:13:37.638Z,100595.25
2017-11-21T08:16:05.299Z,100592.59
2017-11-21T08:18:32.958Z,100589.13
2017-11-21T08:21:00.618Z,100589.72
2017-11-21T08:23:28.201Z,100593.05
2017-11-21T08:25:55.774Z,100587.30
2017-11-21T08:28:23.410Z,100596.82
2017-11-21T08:30:50.999Z,100596.19
2017-11-21T08:33:18.570Z,100596.55
2017-11-21T08:35:46.190Z,100598.36
2017-11-21T08:38:13.767Z,100595.17
2017-11-21T08:40:41.346Z,100598.09
2017-11-21T08:43:08.914Z,100596.69
2017-11-21T08:45:36.518Z,100597.53
2017-11-21T08:48:04.084Z,100607.31
2017-11-21T08:50:31.656Z,100600.94
2017-11-21T08:52:59.230Z,100602.28
2017-11-21T08:55:26.795Z,100614.27
2017-11-21T08:57:54.365Z,100611.73
2017-11-21T09:00:21.930Z,100607.95
2017-11-21T09:02:49.498Z,100606.52
2017-11-21T09:05:17.062Z,100608.65
2017-11-21T09:07:44.628Z,100613.92
2017-11-21T09:10:12.196Z,100610.03
2017-11-21T09:12:39.762Z,100602.06
2017-11-21T09:15:07.365Z,100602.34
2017-11-21T09:17:34.936Z,100601.34
2017-11-21T09:20:02.549Z,100607.16
2017-11-21T09:22:30.115Z,100603.22
2017-11-21T09:24:57.677Z,100608.65
2017-11-21T09:27:25.238Z,100612.66
2017-11-21T09:29:52.814Z,100619.63
2017-11-21T09:32:20.378Z,100620.69
2017-11-21T09:34:47.955Z,100618.28
2017-11-21T09:37:15.528Z,100614.77
2017-11-21T09:39:43.095Z,100616.91
2017-11-21T09:42:10.666Z,100616.81
2017-11-21T09:44:38.231Z,100619.19
2017-11-21T09:47:05.794Z,100610.98
2017-11-21T09:49:33.358Z,100607.58
2017-11-21T09:52:00.959Z,100605.86
2017-11-21T09:54:28.522Z,100611.19
2017-11-21T09:56:56.138Z,100610.86
2017-11-21T09:59:23.721Z,100609.59
2017-11-21T10:01:51.290Z,100612.39
2017-11-21T10:04:18.851Z,100608.17
2017-11-21T10:06:46.418Z,100604.86
2017-11-21T10:09:14.009Z,100608.04
2017-11-21T10:11:41.578Z,100608.75
2017-11-21T10:14:09.147Z,100598.59
2017-11-21T10:16:36.748Z,100597.13
2017-11-21T10:19:04.317Z,100602.03
2017-11-21T10:21:31.890Z,100609.36
2017-11-21T10:23:59.451Z,100609.95
2017-11-21T10:26:27.021Z,100604.27
2017-11-21T10:28:54.587Z,100610.77
2017-11-21T10:31:22.146Z,100618.39
2017-11-21T10:33:49.709Z,100616.61
2017-11-21T10:36:17.318Z,100612.35
2017-11-21T10:38:44.877Z,100609.53
2017-11-21T10:41:12.449Z,100610.95
2017-11-21T10:43:40.014Z,100614.27
2017-11-21T10:46:07.581Z,100609.77
2017-11-21T10:48:35.146Z,100598.42
2017-11-21T10:51:02.715Z,100598.23
2017-11-21T10:53:30.310Z,100599.94
2017-11-21T10:55:57.875Z,100597.38
2017-11-21T10:58:25.439Z,100601.32
2017-11-21T11:00:52.997Z,100599.20
2017-11-21T11:03:20.634Z,100605.41
2017-11-21T11:05:48.199Z,100605.27
2017-11-21T11:08:15.772Z,100606.82
2017-11-21T11:10:43.344Z,100611.11
2017-11-21T11:13:10.907Z,100601.59
2017-11-21T11:15:38.507Z,100610.51
2017-11-21T11:18:06.082Z,100608.33
2017-11-21T11:20:33.636Z,100602.90
2017-11-21T11:23:01.202Z,100598.08
2017-11-21T11:25:28.762Z,100600.26
2017-11-21T11:27:56.321Z,100594.63
2017-11-21T11:30:23.894Z,100589.47
2017-11-21T11:32:51.459Z,100591.73
2017-11-21T11:35:19.026Z,100595.95
2017-11-21T11:37:46.599Z,100587.30
2017-11-21T11:40:14.157Z,100587.27
2017-11-21T11:42:41.753Z,100588.84
2017-11-21T11:45:09.314Z,100590.05
2017-11-21T11:47:36.912Z,100588.11
2017-11-21T11:50:04.478Z,100581.00
2017-11-21T11:52:32.087Z,100585.80
2017-11-21T11:54:59.650Z,100581.96
2017-11-21T11:57:27.212Z,100578.38
2017-11-21T11:59:54.773Z,100575.45
2017-11-21T12:02:22.334Z,100572.91
2017-11-21T12:04:49.891Z,100570.81
2017-11-21T12:07:17.502Z,100565.75
2017-11-21T12:09:45.064Z,100558.23
2017-11-21T12:12:12.622Z,100562.55
2017-11-21T12:14:40.174Z,100558.46
2017-11-21T12:17:07.728Z,100554.97
2017-11-21T12:19:35.291Z,100550.75
2017-11-21T12:22:02.854Z,100549.97
2017-11-21T12:24:30.433Z,100549.37
2017-11-21T12:26:57.999Z,100556.83
2017-11-21T12:29:25.571Z,100557.05
2017-11-21T12:31:53.133Z,100565.32
2017-11-21T12:34:20.734Z,100566.76
2017-11-21T12:36:48.295Z,100575.58
2017-11-21T12:39:15.853Z,100570.30
2017-11-21T12:41:43.409Z,100576.67
2017-11-21T12:44:10.991Z,100579.76
2017-11-21T12:46:38.555Z,100569.11
2017-11-21T12:49:06.117Z,100574.17
2017-11-21T12:51:33.683Z,100573.20
2017-11-21T12:54:01.250Z,100575.14
2017-11-21T12:56:28.861Z,100586.19
2017-11-21T12:58:56.436Z,100582.30
2017-11-21T13:01:24.043Z,100583.77
2017-11-21T13:03:51.605Z,100584.78
2017-11-21T13:06:19.169Z,100578.55
2017-11-21T13:08:46.731Z,100581.33
2017-11-21T13:11:14.297Z,100587.25
2017-11-21T13:13:41.900Z,100583.14
2017-11-21T13:16:09.463Z,100581.55
2017-11-21T13:18:37.057Z,100587.17
2017-11-21T13:21:04.618Z,100582.70
2017-11-21T13:23:32.219Z,100586.01
2017-11-21T13:25:59.787Z,100587.49
2017-11-21T13:28:27.354Z,100592.05
2017-11-21T13:30:54.950Z,100591.70
2017-11-21T13:33:22.529Z,100594.44
2017-11-21T13:35:50.090Z,100599.11
2017-11-21T13:38:17.645Z,100599.14
2017-11-21T13:40:45.247Z,100594.45
2017-11-21T13:43:12.810Z,100606.20
2017-11-21T13:45:40.510Z,100596.84
2017-11-21T13:48:08.067Z,100586.44
2017-11-21T13:50:35.637Z,100591.89
2017-11-21T13:53:03.209Z,100596.63
2017-11-21T13:55:30.778Z,100591.91
2017-11-21T13:57:58.356Z,100594.34
2017-11-21T14:00:25.916Z,100599.23
2017-11-21T14:02:53.518Z,100603.45
2017-11-21T14:05:24.874Z,100596.02
2017-11-21T14:07:52.488Z,100600.98
2017-11-21T14:10:21.009Z,100597.94
2017-11-21T14:12:48.595Z,100598.07
2017-11-21T14:15:16.157Z,100599.31
2017-11-21T14:17:43.722Z,100588.30
2017-11-21T14:20:11.292Z,100593.62
2017-11-21T14:22:38.855Z,100597.27
2017-11-21T14:25:06.414Z,100596.78
2017-11-21T14:27:34.018Z,100608.13
2017-11-21T14:30:01.581Z,100607.23
2017-11-21T14:32:29.158Z,100613.13
2017-11-21T14:34:56.723Z,100608.52
2017-11-21T14:37:24.292Z,100613.07
2017-11-21T14:39:51.859Z,100614.14
2017-11-21T14:42:19.420Z,100611.70
2017-11-21T14:44:46.988Z,100604.98
2017-11-21T14:47:14.558Z,100601.59
2017-11-21T14:49:42.114Z,100600.34
2017-11-21T14:52:09.677Z,100599.58
2017-11-21T14:54:37.234Z,100599.13
2017-11-21T14:57:04.797Z,100601.05
2017-11-21T14:59:32.385Z,100595.22
2017-11-21T15:01:59.946Z,100597.64
2017-11-21T15:04:27.518Z,100592.30
2017-11-21T15:06:55.115Z,100594.70
2017-11-21T15:09:22.689Z,100593.52
2017-11-21T15:11:50.258Z,100589.62
2017-11-21T15:14:17.818Z,100589.23
2017-11-21T15:16:45.387Z,100586.08
2017-11-21T15:19:12.992Z,100586.92
2017-11-21T15:21:40.557Z,100588.12
2017-11-21T15:24:08.200Z,100583.39
2017-11-21T15:26:35.770Z,100589.36
2017-11-21T15:29:03.334Z,100580.67
2017-11-21T15:31:30.898Z,100573.77
2017-11-21T15:33:58.468Z,100575.73
2017-11-21T15:36:26.037Z,100576.05
2017-11-21T15:38:53.614Z,100573.64
2017-11-21T15:41:21.287Z,100565.14
2017-11-21T15:43:48.856Z,100575.38
2017-11-21T15:46:16.449Z,100569.33
2017-11-21T15:48:44.947Z,100566.54
2017-11-21T15:51:12.646Z,100564.95
2017-11-21T15:53:40.218Z,100562.48
2017-11-21T15:56:07.786Z,100564.62
2017-11-21T15:58:35.356Z,100568.53
2017-11-21T16:01:02.935Z,100567.11
2017-11-21T16:03:30.501Z,100566.16
2017-11-21T16:05:58.075Z,100564.19
2017-11-21T16:08:25.653Z,100564.32
2017-11-21T16:10:53.218Z,100568.72
2017-11-21T16:13:20.821Z,100565.80
2017-11-21T16:15:48.396Z,100571.48
2017-11-21T16:18:15.961Z,100571.41
2017-11-21T16:20:43.526Z,100578.17
2017-11-21T16:23:11.097Z,100577.14
2017-11-21T16:25:38.665Z,100576.00
2017-11-21T16:28:06.234Z,100584.42
2017-11-21T16:30:33.801Z,100577.70
2017-11-21T16:33:01.371Z,100578.81
2017-11-21T16:35:28.975Z,100577.04
2017-11-21T16:37:56.540Z,100583.16
2017-11-21T16:40:24.110Z,100586.35
2017-11-21T16:42:51.689Z,100584.47
2017-11-21T16:45:19.249Z,100580.56
2017-11-21T16:47:46.814Z,100582.78
2017-11-21T16:50:14.375Z,100586.77
2017-11-21T16:52:42.874Z,100579.86
2017-11-21T16:55:10.487Z,100574.79
2017-11-21T16:57:38.054Z,100569.71
2017-11-21T17:00:05.630Z,100576.80
2017-11-21T17:02:33.203Z,100571.48
2017-11-21T17:05:00.778Z,100578.36
2017-11-21T17:07:28.345Z,100570.61
2017-11-21T17:09:55.906Z,100571.82
2017-11-21T17:12:23.512Z,100572.22
2017-11-21T17:14:51.083Z,100564.27
2017-11-21T17:17:18.654Z,100567.84
2017-11-21T17:19:46.222Z,100570.67
2017-11-21T17:22:13.828Z,100569.86
2017-11-21T17:24:41.400Z,100570.95
2017-11-21T17:27:08.970Z,100569.84
2017-11-21T17:29:37.010Z,100569.33
2017-11-21T17:32:04.610Z,100568.15
2017-11-21T17:34:34.967Z,100578.41
2017-11-21T17:37:03.982Z,100568.69
2017-11-21T17:39:31.550Z,100572.36
2017-11-21T17:41:59.135Z,100574.22
2017-11-21T17:44:26.702Z,100568.55
2017-11-21T17:46:54.315Z,100568.18
2017-11-21T17:49:21.914Z,100571.91
2017-11-21T17:51:49.558Z,100568.89
2017-11-21T17:54:17.186Z,100572.06
2017-11-21T17:56:44.757Z,100570.77
2017-11-21T17:59:12.327Z,100573.83
2017-11-21T18:01:41.915Z,100575.87
2017-11-21T18:04:10.831Z,100574.88
2017-11-21T18:06:38.454Z,100575.15
2017-11-21T18:09:07.056Z,100568.77
2017-11-21T18:11:34.756Z,100563.34
2017-11-21T18:14:02.324Z,100559.70
2017-11-21T18:16:29.899Z,100561.53
2017-11-21T18:18:57.474Z,100561.67
2017-11-21T18:21:25.051Z,100557.09
2017-11-21T18:23:52.624Z,100551.12
2017-11-21T18:26:20.197Z,100541.09
2017-11-21T18:28:47.771Z,100537.84
2017-11-21T18:31:15.352Z,100539.50
2017-11-21T18:33:42.910Z,100545.48
2017-11-21T18:36:10.471Z,100547.20
2017-11-21T18:38:38.087Z,100544.33
2017-11-21T18:41:06.131Z,100544.38
2017-11-21T18:43:33.809Z,100543.59
2017-11-21T18:46:01.391Z,100540.73
2017-11-21T18:48:30.595Z,100544.75
2017-11-21T18:50:59.081Z,100551.80
2017-11-21T18:53:26.724Z,100548.36
2017-11-21T18:55:55.175Z,100546.83
2017-11-21T18:58:22.763Z,100547.35
2017-11-21T19:00:50.380Z,100539.67
2017-11-21T19:03:17.949Z,100537.85
2017-11-21T19:05:45.511Z,100531.22
2017-11-21T19:08:13.175Z,100533.00
2017-11-21T19:10:40.839Z,100524.95
2017-11-21T19:13:08.516Z,100532.94
2017-11-21T19:15:36.082Z,100535.69
2017-11-21T19:18:03.715Z,100526.86
2017-11-21T19:20:31.325Z,100524.81
2017-11-21T19:22:58.902Z,100521.02
2017-11-21T19:25:26.504Z,100521.05
2017-11-21T19:27:54.075Z,100520.15
2017-11-21T19:30:21.692Z,100516.74
2017-11-21T19:32:49.255Z,100517.41
2017-11-21T19:35:16.829Z,100517.30
2017-11-21T19:37:44.398Z,100515.31
2017-11-21T19:40:11.969Z,100513.78
2017-11-21T19:42:39.542Z,100520.69
2017-11-21T19:45:07.113Z,100516.27
2017-11-21T19:47:34.682Z,100510.89
2017-11-21T19:50:02.246Z,100506.70
2017-11-21T19:52:29.810Z,100506.53
2017-11-21T19:54:57.370Z,100502.61
2017-11-21T19:57:26.126Z,100505.88
2017-11-21T19:59:53.740Z,100506.62
2017-11-21T20:02:21.303Z,100501.28
2017-11-21T20:04:48.862Z,100506.83
2017-11-21T20:07:16.418Z,100511.22
2017-11-21T20:09:44.025Z,100510.63
2017-11-21T20:12:11.584Z,100505.05
2017-11-21T20:14:39.245Z,100503.08
2017-11-21T20:17:06.850Z,100500.52
2017-11-21T20:19:34.425Z,100498.38
2017-11-21T20:22:01.992Z,100500.88
2017-11-21T20:24:29.551Z,100508.81
2017-11-21T20:26:57.119Z,100508.61
2017-11-21T20:29:24.714Z,100508.51
2017-11-21T20:31:52.294Z,100515.36
2017-11-21T20:34:19.898Z,100514.13
2017-11-21T20:36:47.474Z,100505.59
2017-11-21T20:39:15.089Z,100504.99
2017-11-21T20:41:42.718Z,100505.66
2017-11-21T20:44:10.297Z,100508.23
2017-11-21T20:46:37.875Z,100511.84
2017-11-21T20:49:05.442Z,100507.84
2017-11-21T20:51:33.069Z,100516.62
2017-11-21T20:54:00.733Z,100515.69
2017-11-21T20:56:28.309Z,100514.20
2017-11-21T20:58:55.956Z,100514.95
2017-11-21T21:01:23.562Z,100506.27
2017-11-21T21:03:51.128Z,100500.88
2017-11-21T21:06:18.735Z,100500.42
2017-11-21T21:08:46.395Z,100506.23
2017-11-21T21:11:13.995Z,100497.34
2017-11-21T21:13:41.628Z,100494.77
2017-11-21T21:16:09.195Z,100493.64
2017-11-21T21:18:36.847Z,100495.16
2017-11-21T21:21:04.506Z,100493.92
2017-11-21T21:23:32.069Z,100496.98
2017-11-21T21:25:59.635Z,100495.19
2017-11-21T21:28:27.210Z,100496.20
2017-11-21T21:30:54.777Z,100497.09
2017-11-21T21:33:22.340Z,100495.61
2017-11-21T21:35:49.908Z,100495.69
2017-11-21T21:38:18.704Z,100481.39
2017-11-21T21:40:46.292Z,100475.10
2017-11-21T21:43:13.858Z,100480.80
2017-11-21T21:45:41.418Z,100480.20
2017-11-21T21:48:08.977Z,100475.88
2017-11-21T21:50:36.538Z,100476.29
2017-11-21T21:53:04.238Z,100480.86
2017-11-21T21:55:31.798Z,100478.61
2017-11-21T21:58:05.949Z,100472.92
2017-11-21T22:00:33.570Z,100468.40
2017-11-21T22:03:02.255Z,100465.27
2017-11-21T22:05:29.810Z,100458.50
2017-11-21T22:08:00.205Z,100465.00
2017-11-21T22:10:28.611Z,100458.25
2017-11-21T22:13:13.246Z,100462.99
2017-11-21T22:15:41.720Z,100464.97
2017-11-21T22:18:09.514Z,100467.98
2017-11-21T22:20:37.074Z,100480.77
2017-11-21T22:23:04.718Z,100482.69
2017-11-21T22:28:06.223Z,100483.85
2017-11-21T22:30:33.794Z,100479.92
2017-11-21T22:33:01.361Z,100479.14
2017-11-21T22:35:28.926Z,100468.55
2017-11-21T22:37:56.534Z,100460.75
2017-11-21T22:40:24.093Z,100461.09
2017-11-21T22:42:51.655Z,100464.19
2017-11-21T22:45:19.221Z,100461.88
2017-11-21T22:47:46.778Z,100463.63
2017-11-21T22:50:14.381Z,100458.57
2017-11-21T22:52:41.943Z,100453.20
2017-11-21T22:55:09.510Z,100445.69
2017-11-21T22:57:37.114Z,100447.02
2017-11-21T23:00:04.679Z,100453.30
2017-11-21T23:02:32.242Z,100452.78
2017-11-21T23:04:59.801Z,100454.64
2017-11-21T23:07:27.362Z,100450.03
2017-11-21T23:09:54.921Z,100454.18
2017-11-21T23:12:22.490Z,100450.22
2017-11-21T23:14:50.086Z,100446.17
2017-11-21T23:17:17.653Z,100434.63
2017-11-21T23:19:45.241Z,100423.52
2017-11-21T23:22:12.797Z,100431.70
2017-11-21T23:24:40.393Z,100430.94
2017-11-21T23:27:07.965Z,100428.38
2017-11-21T23:29:35.570Z,100429.72
2017-11-21T23:32:03.129Z,100431.15
2017-11-21T23:34:30.693Z,100424.86
2017-11-21T23:36:58.262Z,100421.70
2017-11-21T23:39:25.852Z,100415.86
2017-11-21T23:41:53.411Z,100412.31
2017-11-21T23:44:20.975Z,100412.53
2017-11-21T23:46:48.536Z,100420.72
2017-11-21T23:49:16.101Z,100422.63
2017-11-21T23:51:43.663Z,100417.13
2017-11-21T23:54:11.227Z,100403.08
2017-11-21T23:56:38.786Z,100403.73
2017-11-21T23:59:06.345Z,100401.48
